createdAt,value
2018-06-22T00:01:06.762Z,15.55
2018-06-22T00:03:34.972Z,15.46
2018-06-22T00:06:03.172Z,15.47
2018-06-22T00:08:31.384Z,15.39
2018-06-22T00:10:59.567Z,15.30
2018-06-22T00:13:27.792Z,15.25
2018-06-22T00:15:56.034Z,15.24
2018-06-22T00:18:24.232Z,15.20
2018-06-22T00:20:52.417Z,15.23
2018-06-22T00:23:20.640Z,15.22
2018-06-22T00:25:48.821Z,15.21
2018-06-22T00:28:17.180Z,15.19
2018-06-22T00:30:45.355Z,15.23
2018-06-22T00:33:13.540Z,15.25
2018-06-22T00:35:41.749Z,15.25
2018-06-22T00:38:09.948Z,15.24
2018-06-22T00:40:38.159Z,15.25
2018-06-22T00:43:06.358Z,15.28
2018-06-22T00:45:34.653Z,15.36
2018-06-22T00:48:02.862Z,15.37
2018-06-22T00:50:31.163Z,15.38
2018-06-22T00:52:59.405Z,15.39
2018-06-22T00:55:27.612Z,15.37
2018-06-22T00:57:55.789Z,15.35
2018-06-22T01:00:24.013Z,15.28
2018-06-22T01:02:52.232Z,15.33
2018-06-22T01:05:20.413Z,15.30
2018-06-22T01:07:48.592Z,15.36
2018-06-22T01:10:16.826Z,15.42
2018-06-22T01:12:45.024Z,15.44
2018-06-22T01:15:13.248Z,15.49
2018-06-22T01:17:41.464Z,15.40
2018-06-22T01:20:09.636Z,15.40
2018-06-22T01:22:37.824Z,15.31
2018-06-22T01:25:06.066Z,15.27
2018-06-22T01:27:34.296Z,15.20
2018-06-22T01:30:02.481Z,15.19
2018-06-22T01:32:30.676Z,15.17
2018-06-22T01:34:58.900Z,15.12
2018-06-22T01:37:27.178Z,15.11
2018-06-22T01:39:55.512Z,15.14
2018-06-22T01:42:23.739Z,15.11
2018-06-22T01:44:51.958Z,15.09
2018-06-22T01:47:20.201Z,14.97
2018-06-22T01:49:48.521Z,15.04
2018-06-22T01:52:17.016Z,15.11
2018-06-22T01:54:45.284Z,15.00
2018-06-22T01:57:13.529Z,14.95
2018-06-22T01:59:41.745Z,14.94
2018-06-22T02:02:10.045Z,14.94
2018-06-22T02:04:38.278Z,14.94
2018-06-22T02:07:06.568Z,14.83
2018-06-22T02:09:34.772Z,14.80
2018-06-22T02:12:03.013Z,14.73
2018-06-22T02:14:31.245Z,14.75
2018-06-22T02:16:59.482Z,14.70
2018-06-22T02:19:27.732Z,14.74
2018-06-22T02:21:55.965Z,14.66
2018-06-22T02:24:24.180Z,14.68
2018-06-22T02:26:52.642Z,14.71
2018-06-22T02:29:20.897Z,14.77
2018-06-22T02:31:49.160Z,14.74
2018-06-22T02:34:17.369Z,14.75
2018-06-22T02:36:45.575Z,14.82
2018-06-22T02:39:14.093Z,14.85
2018-06-22T02:41:42.317Z,14.89
2018-06-22T02:44:10.572Z,14.90
2018-06-22T02:46:38.844Z,14.96
2018-06-22T02:49:07.098Z,15.00
2018-06-22T02:51:35.314Z,15.01
2018-06-22T02:54:03.589Z,14.94
2018-06-22T02:56:31.864Z,14.94
2018-06-22T02:59:00.089Z,14.97
2018-06-22T03:01:28.318Z,14.86
2018-06-22T03:03:56.521Z,14.87
2018-06-22T03:06:24.804Z,14.81
2018-06-22T03:08:53.073Z,14.81
2018-06-22T03:11:21.422Z,14.68
2018-06-22T03:13:49.637Z,14.69
2018-06-22T03:16:17.847Z,14.67
2018-06-22T03:18:46.082Z,14.69
2018-06-22T03:21:14.457Z,14.64
2018-06-22T03:23:42.904Z,14.55
2018-06-22T03:26:11.173Z,14.55
2018-06-22T03:28:39.395Z,14.49
2018-06-22T03:31:08.250Z,14.49
2018-06-22T03:33:36.482Z,14.48
2018-06-22T03:36:04.925Z,14.42
2018-06-22T03:38:33.201Z,14.38
2018-06-22T03:41:01.397Z,14.39
2018-06-22T03:43:29.617Z,14.33
2018-06-22T03:45:57.829Z,14.25
2018-06-22T03:48:26.212Z,14.23
2018-06-22T03:50:54.436Z,14.19
2018-06-22T03:53:22.645Z,14.26
2018-06-22T03:55:50.853Z,14.30
2018-06-22T03:58:19.108Z,14.28
2018-06-22T04:00:47.412Z,14.33
2018-06-22T04:03:15.716Z,14.40
2018-06-22T04:05:43.926Z,14.39
2018-06-22T04:08:12.147Z,14.40
2018-06-22T04:10:40.370Z,14.44
2018-06-22T04:13:08.664Z,14.40
2018-06-22T04:15:36.891Z,14.27
2018-06-22T04:18:05.153Z,14.24
2018-06-22T04:20:33.386Z,14.19
2018-06-22T04:23:01.633Z,14.28
2018-06-22T04:25:29.921Z,14.31
2018-06-22T04:27:58.232Z,14.30
2018-06-22T04:30:26.461Z,14.33
2018-06-22T04:32:54.834Z,14.36
2018-06-22T04:35:23.037Z,14.38
2018-06-22T04:37:51.248Z,14.31
2018-06-22T04:40:19.526Z,14.25
2018-06-22T04:42:48.669Z,14.22
2018-06-22T04:45:16.985Z,14.27
2018-06-22T04:47:45.231Z,14.23
2018-06-22T04:50:13.516Z,14.22
2018-06-22T04:52:41.797Z,14.26
2018-06-22T04:55:10.044Z,14.28
2018-06-22T04:57:38.245Z,14.29
2018-06-22T05:00:06.591Z,14.26
2018-06-22T05:02:34.809Z,14.22
2018-06-22T05:05:03.130Z,14.23
2018-06-22T05:07:31.408Z,14.19
2018-06-22T05:09:59.705Z,14.23
2018-06-22T05:12:27.997Z,14.30
2018-06-22T05:14:56.212Z,14.32
2018-06-22T05:17:24.458Z,14.40
2018-06-22T05:19:52.692Z,14.41
2018-06-22T05:22:20.953Z,14.37
2018-06-22T05:24:49.242Z,14.37
2018-06-22T05:27:17.443Z,14.26
2018-06-22T05:29:45.678Z,14.35
2018-06-22T05:32:13.970Z,14.39
2018-06-22T05:34:42.223Z,14.46
2018-06-22T05:37:10.449Z,14.54
2018-06-22T05:39:39.165Z,14.55
2018-06-22T05:42:07.549Z,14.57
2018-06-22T05:44:35.774Z,14.60
2018-06-22T05:47:03.989Z,14.58
2018-06-22T05:49:32.211Z,14.61
2018-06-22T05:52:00.486Z,14.61
2018-06-22T05:54:28.697Z,14.57
2018-06-22T05:56:56.925Z,14.51
2018-06-22T05:59:25.129Z,14.57
2018-06-22T06:01:53.808Z,14.64
2018-06-22T06:04:22.025Z,14.68
2018-06-22T06:06:50.321Z,14.72
2018-06-22T06:09:18.584Z,14.69
2018-06-22T06:11:46.821Z,14.78
2018-06-22T06:14:15.065Z,14.85
2018-06-22T06:16:43.278Z,14.94
2018-06-22T06:19:11.681Z,14.86
2018-06-22T06:21:39.932Z,14.87
2018-06-22T06:24:08.228Z,14.78
2018-06-22T06:26:36.494Z,14.80
2018-06-22T06:29:04.716Z,14.79
2018-06-22T06:31:32.924Z,14.86
2018-06-22T06:34:01.135Z,14.89
2018-06-22T06:36:30.101Z,14.90
2018-06-22T06:38:58.297Z,14.94
2018-06-22T06:41:26.597Z,15.00
2018-06-22T06:43:54.867Z,15.12
2018-06-22T06:46:23.122Z,15.13
2018-06-22T06:48:51.350Z,15.18
2018-06-22T06:51:19.661Z,15.21
2018-06-22T06:53:47.881Z,15.32
2018-06-22T06:56:16.157Z,15.30
2018-06-22T06:58:44.365Z,15.38
2018-06-22T07:01:12.597Z,15.41
2018-06-22T07:03:40.919Z,15.34
2018-06-22T07:06:09.127Z,15.37
2018-06-22T07:08:37.403Z,15.42
2018-06-22T07:11:05.669Z,15.35
2018-06-22T07:13:33.977Z,15.41
2018-06-22T07:16:02.209Z,15.33
2018-06-22T07:18:30.446Z,15.33
2018-06-22T07:20:58.733Z,15.36
2018-06-22T07:23:26.941Z,15.45
2018-06-22T07:25:55.185Z,15.49
2018-06-22T07:28:23.524Z,15.59
2018-06-22T07:30:51.741Z,15.61
2018-06-22T07:33:19.967Z,15.63
2018-06-22T07:35:48.389Z,15.61
2018-06-22T07:38:16.760Z,15.59
2018-06-22T07:40:45.012Z,15.55
2018-06-22T07:43:13.244Z,15.58
2018-06-22T07:45:41.481Z,15.65
2018-06-22T07:48:09.676Z,15.72
2018-06-22T07:50:37.904Z,15.79
2018-06-22T07:53:06.157Z,15.84
2018-06-22T07:55:34.416Z,15.90
2018-06-22T07:58:02.641Z,15.81
2018-06-22T08:00:31.040Z,15.84
2018-06-22T08:02:59.294Z,15.82
2018-06-22T08:05:27.528Z,15.78
2018-06-22T08:07:55.789Z,15.74
2018-06-22T08:10:24.004Z,15.77
2018-06-22T08:12:52.237Z,15.80
2018-06-22T08:15:20.464Z,15.73
2018-06-22T08:17:48.709Z,15.70
2018-06-22T08:20:16.957Z,15.72
2018-06-22T08:22:45.164Z,15.68
2018-06-22T08:25:13.489Z,15.72
2018-06-22T08:27:41.737Z,15.72
2018-06-22T08:30:10.021Z,15.66
2018-06-22T08:32:38.272Z,15.73
2018-06-22T08:35:07.033Z,15.79
2018-06-22T08:37:35.373Z,15.84
2018-06-22T08:40:03.645Z,15.91
2018-06-22T08:42:31.877Z,15.95
2018-06-22T08:45:00.107Z,15.92
2018-06-22T08:47:28.422Z,15.87
2018-06-22T08:49:56.661Z,15.78
2018-06-22T08:52:24.862Z,15.69
2018-06-22T08:54:53.065Z,15.60
2018-06-22T08:57:21.320Z,15.51
2018-06-22T08:59:49.543Z,15.51
2018-06-22T09:02:17.853Z,15.51
2018-06-22T09:04:46.218Z,15.57
2018-06-22T09:07:14.463Z,15.64
2018-06-22T09:09:42.716Z,15.73
2018-06-22T09:12:10.973Z,15.84
2018-06-22T09:14:39.185Z,15.96
2018-06-22T09:17:07.397Z,16.01
2018-06-22T09:19:35.725Z,16.09
2018-06-22T09:22:03.917Z,16.13
2018-06-22T09:24:32.173Z,16.18
2018-06-22T09:27:00.405Z,16.25
2018-06-22T09:29:28.616Z,16.22
2018-06-22T09:31:56.849Z,16.15
2018-06-22T09:34:25.108Z,16.15
2018-06-22T09:36:53.478Z,16.11
2018-06-22T09:39:21.704Z,16.10
2018-06-22T09:41:49.937Z,16.13
2018-06-22T09:44:29.445Z,16.15
2018-06-22T09:46:58.139Z,16.12
2018-06-22T09:49:26.780Z,16.23
2018-06-22T09:51:55.377Z,16.35
2018-06-22T09:54:23.640Z,16.45
2018-06-22T09:56:52.367Z,16.49
2018-06-22T09:59:20.937Z,16.59
2018-06-22T10:01:49.466Z,16.64
2018-06-22T10:04:17.688Z,16.61
2018-06-22T10:06:45.962Z,16.58
2018-06-22T10:09:14.212Z,16.56
2018-06-22T10:11:42.513Z,16.56
2018-06-22T10:14:10.776Z,16.55
2018-06-22T10:16:38.991Z,16.57
2018-06-22T10:19:07.242Z,16.57
2018-06-22T10:21:35.441Z,16.56
2018-06-22T10:24:03.737Z,16.56
2018-06-22T10:26:32.084Z,16.61
2018-06-22T10:29:00.299Z,16.62
2018-06-22T10:31:28.553Z,16.67
2018-06-22T10:33:56.823Z,16.66
2018-06-22T10:36:25.038Z,16.69
2018-06-22T10:38:53.356Z,16.73
2018-06-22T10:41:21.669Z,16.79
2018-06-22T10:43:49.912Z,16.85
2018-06-22T10:46:18.199Z,16.94
2018-06-22T10:48:46.528Z,17.06
2018-06-22T10:51:14.864Z,17.17
2018-06-22T10:53:43.145Z,17.20
2018-06-22T10:56:11.463Z,17.32
2018-06-22T10:58:39.756Z,17.42
2018-06-22T11:01:08.021Z,17.52
2018-06-22T11:03:36.300Z,17.54
2018-06-22T11:06:04.606Z,17.49
2018-06-22T11:08:32.839Z,17.44
2018-06-22T11:11:01.054Z,17.43
2018-06-22T11:13:29.352Z,17.39
2018-06-22T11:15:57.577Z,17.32
2018-06-22T11:18:25.922Z,17.25
2018-06-22T11:20:54.127Z,17.15
2018-06-22T11:23:22.364Z,17.14
2018-06-22T11:25:50.625Z,17.23
2018-06-22T11:28:18.961Z,17.35
2018-06-22T11:30:47.245Z,17.48
2018-06-22T11:33:15.448Z,17.55
2018-06-22T11:35:43.886Z,17.62
2018-06-22T11:38:12.009Z,17.75
2018-06-22T11:40:40.292Z,17.78
2018-06-22T11:43:09.060Z,17.73
2018-06-22T11:45:37.563Z,17.63
2018-06-22T11:48:05.989Z,17.53
2018-06-22T11:50:34.257Z,17.31
2018-06-22T11:53:02.473Z,17.14
2018-06-22T11:55:30.712Z,16.87
2018-06-22T11:57:58.973Z,16.76
2018-06-22T12:00:27.263Z,16.77
2018-06-22T12:02:55.485Z,16.86
2018-06-22T12:05:23.776Z,17.04
2018-06-22T12:07:52.085Z,17.25
2018-06-22T12:10:20.384Z,17.75
2018-06-22T12:12:48.673Z,18.17
2018-06-22T12:15:16.921Z,18.57
2018-06-22T12:17:45.116Z,18.69
2018-06-22T12:20:13.389Z,18.68
2018-06-22T12:22:41.589Z,18.57
2018-06-22T12:25:09.829Z,18.50
2018-06-22T12:27:38.038Z,18.42
2018-06-22T12:30:06.269Z,18.35
2018-06-22T12:32:34.512Z,18.22
2018-06-22T12:35:02.769Z,18.09
2018-06-22T12:37:31.035Z,18.01
2018-06-22T12:39:59.316Z,17.91
2018-06-22T12:42:27.569Z,17.70
2018-06-22T12:44:55.889Z,17.62
2018-06-22T12:47:24.114Z,17.52
2018-06-22T12:49:52.400Z,17.51
2018-06-22T12:52:20.597Z,17.49
2018-06-22T12:54:48.882Z,17.50
2018-06-22T12:57:17.140Z,17.48
2018-06-22T12:59:45.390Z,17.43
2018-06-22T13:02:13.639Z,17.44
2018-06-22T13:04:41.857Z,17.41
2018-06-22T13:07:10.093Z,17.19
2018-06-22T13:09:38.362Z,17.09
2018-06-22T13:12:06.724Z,17.07
2018-06-22T13:14:35.041Z,17.09
2018-06-22T13:17:03.352Z,17.14
2018-06-22T13:19:31.589Z,17.17
2018-06-22T13:21:59.813Z,17.30
2018-06-22T13:24:28.096Z,17.45
2018-06-22T13:26:56.317Z,17.66
2018-06-22T13:29:24.548Z,17.98
2018-06-22T13:31:52.850Z,18.46
2018-06-22T13:34:21.120Z,18.81
2018-06-22T13:36:49.401Z,19.11
2018-06-22T13:39:18.856Z,19.38
2018-06-22T13:41:47.745Z,19.53
2018-06-22T13:44:15.993Z,19.48
2018-06-22T13:46:44.952Z,19.60
2018-06-22T13:49:13.423Z,19.74
2018-06-22T13:51:41.673Z,19.77
2018-06-22T13:54:10.140Z,19.76
2018-06-22T13:56:38.614Z,19.87
2018-06-22T13:59:06.905Z,19.69
2018-06-22T14:01:35.596Z,19.70
2018-06-22T14:04:09.075Z,19.54
2018-06-22T14:06:42.681Z,19.34
2018-06-22T14:09:13.654Z,19.15
2018-06-22T14:11:42.560Z,19.04
2018-06-22T14:14:10.888Z,18.92
2018-06-22T14:16:39.416Z,19.06
2018-06-22T14:19:08.140Z,19.37
2018-06-22T14:21:36.573Z,19.45
2018-06-22T14:24:05.450Z,19.58
2018-06-22T14:26:33.960Z,19.77
2018-06-22T14:29:02.357Z,20.00
2018-06-22T14:31:31.047Z,20.16
2018-06-22T14:33:59.282Z,20.24
2018-06-22T14:36:27.549Z,20.27
2018-06-22T14:38:55.986Z,20.44
2018-06-22T14:41:24.372Z,20.47
2018-06-22T14:43:52.776Z,20.46
2018-06-22T14:46:21.045Z,20.52
2018-06-22T14:48:49.690Z,20.58
2018-06-22T14:51:17.896Z,20.53
2018-06-22T14:53:51.612Z,20.60
2018-06-22T14:56:25.267Z,20.63
2018-06-22T14:58:58.857Z,20.63
2018-06-22T15:01:32.816Z,20.75
2018-06-22T15:04:06.517Z,20.88
2018-06-22T15:06:40.012Z,20.94
2018-06-22T15:09:09.812Z,20.99
2018-06-22T15:11:38.465Z,20.84
2018-06-22T15:14:06.760Z,20.76
2018-06-22T15:16:35.198Z,20.74
2018-06-22T15:19:03.624Z,20.82
2018-06-22T15:21:31.892Z,20.90
2018-06-22T15:24:00.164Z,20.99
2018-06-22T15:26:28.568Z,20.80
2018-06-22T15:28:56.861Z,20.71
2018-06-22T15:31:25.393Z,20.68
2018-06-22T15:33:58.904Z,20.69
2018-06-22T15:36:32.709Z,20.64
2018-06-22T15:39:07.372Z,20.50
2018-06-22T15:41:40.787Z,20.59
2018-06-22T15:44:14.460Z,20.87
2018-06-22T15:46:48.061Z,20.97
2018-06-22T15:49:21.768Z,20.78
2018-06-22T15:51:55.541Z,20.79
2018-06-22T15:54:29.174Z,20.73
2018-06-22T15:56:57.669Z,20.51
2018-06-22T15:59:26.154Z,20.25
2018-06-22T16:01:58.644Z,20.14
2018-06-22T16:04:26.931Z,20.68
2018-06-22T16:06:55.169Z,20.78
2018-06-22T16:09:23.397Z,20.76
2018-06-22T16:11:51.681Z,20.85
2018-06-22T16:14:25.169Z,21.02
2018-06-22T16:16:58.649Z,21.05
2018-06-22T16:20:35.172Z,20.81
2018-06-22T16:23:08.785Z,20.31
2018-06-22T16:25:42.381Z,20.14
2018-06-22T16:28:10.626Z,19.98
2018-06-22T16:30:38.988Z,19.65
2018-06-22T16:33:07.177Z,19.44
2018-06-22T16:35:35.624Z,19.26
2018-06-22T16:38:04.226Z,19.11
2018-06-22T16:40:32.486Z,19.09
2018-06-22T16:43:00.744Z,19.07
2018-06-22T16:45:28.974Z,19.10
2018-06-22T16:47:57.396Z,19.11
2018-06-22T16:50:26.365Z,19.10
2018-06-22T16:52:54.730Z,19.20
2018-06-22T16:55:22.988Z,19.38
2018-06-22T16:57:51.360Z,19.92
2018-06-22T17:00:19.561Z,20.74
2018-06-22T17:02:47.820Z,21.16
2018-06-22T17:05:16.067Z,21.44
2018-06-22T17:07:49.596Z,21.34
2018-06-22T17:10:23.041Z,20.79
2018-06-22T17:12:56.581Z,20.54
2018-06-22T17:15:31.013Z,20.95
2018-06-22T17:18:04.481Z,21.50
2018-06-22T17:20:32.758Z,21.95
2018-06-22T17:23:01.068Z,21.99
2018-06-22T17:25:29.325Z,21.94
2018-06-22T17:27:57.576Z,22.26
2018-06-22T17:30:25.847Z,22.52
2018-06-22T17:32:54.061Z,22.69
2018-06-22T17:35:22.381Z,22.78
2018-06-22T17:37:50.638Z,22.80
2018-06-22T17:40:18.888Z,22.87
2018-06-22T17:42:47.476Z,22.61
2018-06-22T17:45:15.769Z,22.42
2018-06-22T17:47:44.044Z,22.35
2018-06-22T17:50:17.585Z,22.17
2018-06-22T17:52:45.908Z,22.14
2018-06-22T17:55:14.181Z,22.03
2018-06-22T17:57:42.761Z,21.94
2018-06-22T18:00:18.408Z,21.54
2018-06-22T18:02:52.105Z,21.24
2018-06-22T18:05:25.710Z,20.96
2018-06-22T18:07:53.980Z,21.01
2018-06-22T18:10:27.425Z,21.06
2018-06-22T18:12:56.858Z,21.12
2018-06-22T18:15:24.995Z,20.81
2018-06-22T18:17:53.261Z,20.53
2018-06-22T18:20:21.493Z,20.32
2018-06-22T18:22:49.810Z,19.97
2018-06-22T18:25:18.077Z,19.80
2018-06-22T18:27:46.329Z,19.60
2018-06-22T18:30:15.833Z,19.50
2018-06-22T18:32:44.088Z,19.38
2018-06-22T18:35:13.828Z,19.25
2018-06-22T18:37:42.226Z,19.10
2018-06-22T18:40:11.234Z,18.98
2018-06-22T18:42:39.748Z,18.95
2018-06-22T18:45:09.567Z,18.91
2018-06-22T18:47:37.804Z,18.85
2018-06-22T18:50:06.037Z,18.83
2018-06-22T18:52:39.784Z,18.79
2018-06-22T18:55:13.653Z,18.77
2018-06-22T18:57:47.141Z,18.73
2018-06-22T19:00:20.577Z,18.69
2018-06-22T19:02:54.289Z,18.64
2018-06-22T19:05:22.716Z,18.67
2018-06-22T19:07:51.053Z,18.61
2018-06-22T19:10:19.321Z,18.62
2018-06-22T19:12:47.741Z,18.63
2018-06-22T19:15:15.967Z,18.63
2018-06-22T19:17:44.338Z,18.67
2018-06-22T19:20:12.622Z,18.66
2018-06-22T19:22:40.868Z,18.65
2018-06-22T19:25:09.116Z,18.62
2018-06-22T19:27:37.509Z,18.58
2018-06-22T19:30:06.437Z,18.48
2018-06-22T19:32:34.647Z,18.43
2018-06-22T19:35:08.236Z,18.39
2018-06-22T19:37:36.449Z,18.34
2018-06-22T19:40:04.744Z,18.32
2018-06-22T19:42:32.941Z,18.28
2018-06-22T19:45:06.431Z,18.27
2018-06-22T19:47:39.913Z,18.26
2018-06-22T19:50:13.445Z,18.22
2018-06-22T19:52:46.878Z,18.18
2018-06-22T19:55:15.129Z,18.13
2018-06-22T19:57:43.501Z,18.09
2018-06-22T20:00:12.104Z,18.10
2018-06-22T20:02:40.381Z,18.06
2018-06-22T20:05:08.688Z,18.06
2018-06-22T20:07:36.940Z,18.01
2018-06-22T20:10:05.687Z,17.99
2018-06-22T20:12:33.918Z,17.93
2018-06-22T20:15:02.181Z,17.90
2018-06-22T20:17:30.548Z,17.85
2018-06-22T20:19:58.844Z,17.77
2018-06-22T20:22:27.085Z,17.72
2018-06-22T20:25:00.708Z,17.71
2018-06-22T20:27:29.017Z,17.74
2018-06-22T20:29:57.301Z,17.70
2018-06-22T20:32:25.557Z,17.67
2018-06-22T20:34:59.276Z,17.64
2018-06-22T20:37:32.968Z,17.63
2018-06-22T20:40:06.285Z,17.56
2018-06-22T20:42:39.933Z,17.47
2018-06-22T20:45:13.472Z,17.45
2018-06-22T20:47:47.233Z,17.43
2018-06-22T20:50:20.872Z,17.41
2018-06-22T20:52:49.158Z,17.34
2018-06-22T20:55:17.458Z,17.31
2018-06-22T20:57:45.709Z,17.25
2018-06-22T21:00:13.984Z,17.24
2018-06-22T21:02:42.231Z,17.17
2018-06-22T21:05:10.513Z,17.11
2018-06-22T21:07:38.741Z,17.09
2018-06-22T21:10:07.297Z,17.03
2018-06-22T21:12:40.418Z,17.02
2018-06-22T21:15:04.050Z,16.99
2018-06-22T21:17:32.265Z,16.97
2018-06-22T21:20:00.488Z,16.95
2018-06-22T21:22:28.713Z,16.96
2018-06-22T21:24:56.943Z,16.95
2018-06-22T21:27:30.423Z,16.94
2018-06-22T21:30:04.061Z,16.95
2018-06-22T21:32:37.584Z,16.95
2018-06-22T21:35:11.260Z,16.89
2018-06-22T21:37:44.904Z,16.90
2018-06-22T21:40:13.137Z,16.88
2018-06-22T21:42:41.374Z,16.88
2018-06-22T21:45:09.612Z,16.85
2018-06-22T21:47:37.917Z,16.82
2018-06-22T21:50:06.169Z,16.75
2018-06-22T21:52:34.378Z,16.76
2018-06-22T21:55:02.640Z,16.77
2018-06-22T21:57:30.888Z,16.75
2018-06-22T21:59:59.165Z,16.76
2018-06-22T22:02:27.425Z,16.72
2018-06-22T22:04:55.647Z,16.66
2018-06-22T22:07:23.890Z,16.65
2018-06-22T22:09:52.129Z,16.63
2018-06-22T22:12:20.353Z,16.59
2018-06-22T22:14:48.568Z,16.58
2018-06-22T22:17:16.808Z,16.56
2018-06-22T22:19:45.053Z,16.55
2018-06-22T22:22:13.300Z,16.54
2018-06-22T22:24:41.533Z,16.51
2018-06-22T22:27:09.830Z,16.49
2018-06-22T22:29:38.120Z,16.50
2018-06-22T22:32:06.400Z,16.50
2018-06-22T22:34:34.704Z,16.50
2018-06-22T22:37:02.969Z,16.48
2018-06-22T22:39:31.213Z,16.46
2018-06-22T22:41:59.464Z,16.44
2018-06-22T22:44:27.689Z,16.45
2018-06-22T22:46:56.069Z,16.45
2018-06-22T22:49:24.346Z,16.45
2018-06-22T22:51:52.561Z,16.44
2018-06-22T22:54:20.809Z,16.41
2018-06-22T22:56:49.041Z,16.42
2018-06-22T22:59:17.260Z,16.36
2018-06-22T23:01:45.609Z,16.34
2018-06-22T23:04:13.858Z,16.32
2018-06-22T23:06:42.208Z,16.31
2018-06-22T23:09:10.635Z,16.28
2018-06-22T23:11:38.963Z,16.25
2018-06-22T23:14:07.241Z,16.23
2018-06-22T23:16:35.500Z,16.17
2018-06-22T23:19:03.739Z,16.12
2018-06-22T23:21:31.965Z,16.04
2018-06-22T23:24:00.327Z,15.99
2018-06-22T23:26:28.540Z,15.91
2018-06-22T23:28:56.837Z,15.91
2018-06-22T23:31:25.109Z,15.90
2018-06-22T23:33:53.336Z,15.91
2018-06-22T23:36:21.609Z,15.89
2018-06-22T23:38:49.872Z,15.86
2018-06-22T23:41:18.136Z,15.83
2018-06-22T23:43:46.345Z,15.79
2018-06-22T23:46:14.604Z,15.80
2018-06-22T23:48:42.821Z,15.79
2018-06-22T23:51:11.107Z,15.81
2018-06-22T23:53:39.373Z,15.82
2018-06-22T23:56:07.635Z,15.78
2018-06-22T23:58:35.876Z,15.68
